Time;durP1;ratioP1;P1;durP2;ratioP2;P2;SDS_P1;SDS_P2;PMS_P1;PMS_P2;Temp;Humidity;BMP_temperature;BMP_pressure;BME280_temperature;BME280_humidity;BME280_pressure;Samples;Min_cycle;Max_cycle;Signal;HPM_P1;HPM_P2
2022/10/01 00:01:07;;;;;;;0.30;0.30;;;11.30;99.90;;;;;;4992837;28;20036;-76
2022/10/01 00:03:34;;;;;;;0.10;0.10;;;11.40;99.90;;;;;;4992651;28;20026;-77
2022/10/01 00:06:02;;;;;;;0.10;0.10;;;11.40;99.90;;;;;;4992497;28;20495;-78
2022/10/01 00:08:28;;;;;;;0.10;0.10;;;11.40;99.90;;;;;;5007874;28;20105;-78
2022/10/01 00:10:54;;;;;;;0.10;0.10;;;11.40;99.90;;;;;;4991090;28;20014;-78
2022/10/01 00:13:20;;;;;;;0.10;0.10;;;11.40;99.90;;;;;;5007769;28;20051;-78
2022/10/01 00:15:46;;;;;;;1.38;1.27;;;11.30;99.90;;;;;;4992600;28;20077;-79
2022/10/01 00:18:12;;;;;;;1.58;1.33;;;11.20;99.90;;;;;;4992799;28;20026;-79
2022/10/01 00:20:42;;;;;;;1.50;1.13;;;11.20;99.90;;;;;;4992666;28;20065;-80
2022/10/01 00:23:12;;;;;;;1.15;1.13;;;11.00;99.90;;;;;;5007697;28;20487;-77
2022/10/01 00:25:38;;;;;;;0.28;0.28;;;11.00;99.90;;;;;;4992248;28;20048;-77
2022/10/01 00:28:04;;;;;;;0.40;0.40;;;11.00;99.90;;;;;;4991207;28;20054;-78
2022/10/01 00:30:30;;;;;;;0.30;0.30;;;10.90;99.90;;;;;;4992620;28;20049;-77
2022/10/01 00:32:56;;;;;;;1.02;0.85;;;10.90;99.90;;;;;;4992388;28;20121;-76
2022/10/01 00:35:22;;;;;;;1.27;0.50;;;10.90;99.90;;;;;;4992514;28;20084;-76
2022/10/01 00:37:50;;;;;;;0.70;0.70;;;10.90;99.90;;;;;;5007517;28;20101;-78
2022/10/01 00:40:18;;;;;;;0.70;0.70;;;10.90;99.90;;;;;;4991296;28;20117;-76
2022/10/01 00:42:44;;;;;;;0.10;0.10;;;10.90;99.90;;;;;;5010480;28;20072;-76
2022/10/01 00:45:12;;;;;;;1.67;1.55;;;10.80;99.90;;;;;;4995918;28;20109;-77
2022/10/01 00:47:49;;;;;;;0.00;0.00;;;10.80;99.90;;;;;;5011179;28;20022;-77
2022/10/01 00:50:24;;;;;;;1.27;1.05;;;10.80;99.90;;;;;;4994868;28;20027;-77
2022/10/01 00:52:54;;;;;;;0.20;0.20;;;10.90;99.90;;;;;;4996088;28;20101;-77
2022/10/01 00:55:44;;;;;;;0.47;0.47;;;10.90;99.90;;;;;;5011205;28;20037;-76
2022/10/01 00:58:13;;;;;;;0.20;0.20;;;10.90;99.90;;;;;;4996009;28;20502;-78
2022/10/01 01:00:41;;;;;;;0.45;0.45;;;10.90;99.90;;;;;;4995947;28;20031;-76
2022/10/01 01:03:08;;;;;;;0.22;0.20;;;10.90;99.90;;;;;;4994565;28;20026;-77
2022/10/01 01:05:34;;;;;;;0.20;0.20;;;10.90;99.90;;;;;;4995609;28;20033;-77
2022/10/01 01:08:00;;;;;;;0.40;0.40;;;10.90;99.90;;;;;;4994724;28;20018;-77
2022/10/01 01:10:36;;;;;;;1.13;1.00;;;10.90;99.90;;;;;;5010600;28;20053;-76
2022/10/01 01:13:16;;;;;;;0.10;0.10;;;10.80;99.90;;;;;;5010714;28;20019;-77
2022/10/01 01:15:46;;;;;;;0.40;0.40;;;10.80;99.90;;;;;;5010527;28;20030;-77
2022/10/01 01:18:14;;;;;;;0.28;0.28;;;10.80;99.90;;;;;;5010658;28;20031;-76
2022/10/01 01:20:55;;;;;;;0.10;0.10;;;10.70;99.90;;;;;;5010729;28;20172;-78
2022/10/01 01:23:37;;;;;;;1.48;1.40;;;10.60;99.90;;;;;;4994306;28;20394;-77
2022/10/01 01:26:35;;;;;;;1.65;1.55;;;10.70;99.90;;;;;;5010342;28;20463;-76
2022/10/01 01:29:07;;;;;;;0.10;0.10;;;10.70;99.90;;;;;;4995354;28;20038;-77
2022/10/01 01:31:39;;;;;;;0.25;0.25;;;10.60;99.90;;;;;;4994254;28;20022;-77
2022/10/01 01:34:11;;;;;;;0.10;0.10;;;10.60;99.90;;;;;;4995310;28;20360;-77
2022/10/01 01:36:43;;;;;;;0.10;0.10;;;10.50;99.90;;;;;;4994065;28;20564;-76
2022/10/01 01:39:13;;;;;;;0.20;0.20;;;10.60;99.90;;;;;;4995302;28;20034;-77
2022/10/01 01:41:48;;;;;;;1.13;1.02;;;10.50;99.90;;;;;;4995264;28;20030;-76
2022/10/01 01:44:20;;;;;;;0.40;0.40;;;10.50;99.90;;;;;;4994000;28;20078;-77
2022/10/01 01:46:48;;;;;;;1.50;1.40;;;10.60;99.90;;;;;;4994988;28;20026;-77
2022/10/01 01:49:17;;;;;;;0.10;0.10;;;10.60;99.90;;;;;;4995203;28;20022;-78
2022/10/01 01:52:03;;;;;;;0.10;0.10;;;10.60;99.90;;;;;;4993853;28;20081;-78
2022/10/01 01:54:30;;;;;;;0.10;0.10;;;10.60;99.90;;;;;;4994463;28;20030;-77
2022/10/01 01:56:57;;;;;;;0.10;0.10;;;10.70;99.90;;;;;;4994733;28;20026;-77
2022/10/01 01:59:24;;;;;;;0.10;0.10;;;10.70;99.90;;;;;;4993699;28;20037;-77
2022/10/01 02:01:50;;;;;;;0.17;0.17;;;10.80;99.90;;;;;;4994876;28;20026;-77
2022/10/01 02:04:45;;;;;;;0.10;0.10;;;10.70;99.90;;;;;;4994838;28;20505;-79
2022/10/01 02:07:46;;;;;;;0.10;0.10;;;10.60;99.90;;;;;;4992806;28;20038;-78
2022/10/01 02:10:31;;;;;;;8.70;7.95;;;10.60;99.90;;;;;;5009467;28;20046;-76
2022/10/01 02:13:15;;;;;;;0.15;0.15;;;10.70;99.90;;;;;;5009420;28;20437;-78
2022/10/01 02:16:00;;;;;;;0.20;0.20;;;10.70;99.90;;;;;;5009409;28;20030;-78
2022/10/01 02:18:51;;;;;;;0.10;0.10;;;10.90;99.90;;;;;;4994661;28;20541;-76
2022/10/01 02:21:40;;;;;;;0.10;0.10;;;10.70;99.90;;;;;;4994465;28;20037;-77
2022/10/01 02:24:25;;;;;;;0.10;0.10;;;10.70;99.90;;;;;;4993085;28;20034;-76
2022/10/01 02:26:54;;;;;;;0.10;0.10;;;10.60;99.90;;;;;;4994220;28;20540;-76
2022/10/01 02:29:22;;;;;;;2.35;1.13;;;10.80;99.90;;;;;;4994260;28;20498;-77
2022/10/01 02:31:52;;;;;;;0.30;0.30;;;10.90;99.90;;;;;;4993272;28;20026;-76
2022/10/01 02:34:21;;;;;;;0.10;0.10;;;10.80;99.90;;;;;;5009316;28;20390;-76
2022/10/01 02:36:48;;;;;;;0.10;0.10;;;10.80;99.90;;;;;;4994110;28;20053;-77
2022/10/01 02:39:16;;;;;;;0.10;0.10;;;10.90;99.90;;;;;;4994159;28;20105;-78
2022/10/01 02:41:44;;;;;;;0.20;0.20;;;10.80;99.90;;;;;;4992825;28;20356;-78
2022/10/01 02:44:17;;;;;;;0.35;0.35;;;10.60;99.90;;;;;;4992760;28;20081;-76
2022/10/01 02:46:50;;;;;;;0.10;0.10;;;10.50;99.90;;;;;;5008996;28;20125;-77
2022/10/01 02:49:16;;;;;;;0.10;0.10;;;10.50;99.90;;;;;;4994190;28;20479;-77
2022/10/01 02:52:01;;;;;;;0.10;0.10;;;10.50;99.90;;;;;;4992819;28;20077;-77
2022/10/01 02:54:33;;;;;;;0.20;0.20;;;10.40;99.90;;;;;;5008964;28;20437;-76
2022/10/01 02:59:44;;;;;;;0.10;0.10;;;10.50;99.90;;;;;;4993836;28;20023;-77
2022/10/01 03:02:10;;;;;;;0.10;0.10;;;10.60;99.90;;;;;;4976309;28;20033;-77
2022/10/01 03:04:37;;;;;;;0.10;0.10;;;10.60;99.90;;;;;;4993173;28;20026;-77
2022/10/01 03:07:03;;;;;;;0.10;0.10;;;10.60;99.90;;;;;;5008203;28;20058;-77
2022/10/01 03:09:30;;;;;;;0.10;0.10;;;10.60;99.90;;;;;;4992309;28;20499;-77
2022/10/01 03:11:56;;;;;;;0.20;0.20;;;10.40;99.90;;;;;;4993582;28;20085;-78
2022/10/01 03:14:23;;;;;;;0.17;0.17;;;10.50;99.90;;;;;;4993596;28;20026;-77
2022/10/01 03:16:50;;;;;;;0.10;0.10;;;10.50;99.90;;;;;;5008495;28;20553;-77
2022/10/01 03:19:16;;;;;;;0.00;0.00;;;10.50;99.90;;;;;;4993574;28;20046;-76
2022/10/01 03:21:41;;;;;;;0.10;0.10;;;10.50;99.90;;;;;;4992205;28;20033;-76
2022/10/01 03:24:07;;;;;;;0.10;0.10;;;10.40;99.90;;;;;;5008340;28;20080;-76
2022/10/01 03:26:33;;;;;;;0.20;0.20;;;10.10;99.90;;;;;;5008200;28;20190;-77
2022/10/01 03:28:59;;;;;;;0.20;0.20;;;10.20;99.90;;;;;;5008154;28;20034;-77
2022/10/01 03:31:25;;;;;;;0.10;0.10;;;10.30;99.90;;;;;;4993221;28;20053;-76
2022/10/01 03:33:50;;;;;;;0.20;0.20;;;10.30;99.90;;;;;;5008162;28;20026;-77
2022/10/01 03:36:16;;;;;;;0.13;0.13;;;10.10;99.90;;;;;;4991689;28;20022;-79
2022/10/01 03:38:42;;;;;;;0.10;0.10;;;9.80;99.90;;;;;;4991807;28;20033;-77
2022/10/01 03:41:08;;;;;;;0.10;0.10;;;9.70;99.90;;;;;;4993070;28;20054;-77
2022/10/01 03:43:34;;;;;;;7.97;3.80;;;9.50;99.90;;;;;;4992986;28;20080;-77
2022/10/01 03:46:00;;;;;;;11.50;4.03;;;9.50;99.90;;;;;;5007785;28;20022;-77
2022/10/01 03:48:28;;;;;;;0.10;0.10;;;9.40;99.90;;;;;;4991851;28;20029;-76
2022/10/01 03:50:58;;;;;;;0.10;0.10;;;9.50;99.90;;;;;;4992935;28;20037;-77
2022/10/01 03:53:26;;;;;;;0.10;0.10;;;9.60;99.90;;;;;;4993225;28;20018;-76
2022/10/01 03:55:52;;;;;;;0.90;0.90;;;9.50;99.90;;;;;;4991544;28;20038;-76
2022/10/01 03:58:19;;;;;;;0.10;0.10;;;9.40;99.90;;;;;;4992921;28;20038;-77
2022/10/01 04:00:46;;;;;;;0.10;0.10;;;9.30;99.90;;;;;;5007913;28;20026;-78
2022/10/01 04:03:13;;;;;;;0.10;0.10;;;9.30;99.90;;;;;;4991572;28;20027;-77
2022/10/01 04:05:39;;;;;;;0.10;0.10;;;9.40;99.90;;;;;;4991161;28;20065;-78
2022/10/01 04:08:05;;;;;;;0.10;0.10;;;9.50;99.90;;;;;;4992749;28;20030;-77
2022/10/01 04:10:30;;;;;;;0.10;0.10;;;9.50;99.90;;;;;;4991200;28;20019;-76
2022/10/01 04:12:56;;;;;;;0.20;0.20;;;9.50;99.90;;;;;;4992673;28;20018;-77
2022/10/01 04:15:23;;;;;;;6.35;5.90;;;9.40;99.90;;;;;;4992508;28;20026;-77
2022/10/01 04:17:49;;;;;;;0.40;0.40;;;9.20;99.90;;;;;;4995805;28;20037;-78
2022/10/01 04:20:15;;;;;;;0.20;0.20;;;9.30;99.90;;;;;;5011656;28;20026;-78
2022/10/01 04:22:42;;;;;;;0.10;0.10;;;9.40;99.90;;;;;;4996632;28;20060;-78
2022/10/01 04:25:12;;;;;;;0.15;0.15;;;9.30;99.90;;;;;;5011578;28;20030;-77
2022/10/01 04:27:42;;;;;;;0.25;0.25;;;9.40;99.90;;;;;;4996478;28;20050;-77
2022/10/01 04:30:08;;;;;;;0.30;0.30;;;9.30;99.90;;;;;;4996659;28;20105;-79
2022/10/01 04:32:35;;;;;;;0.20;0.20;;;9.10;99.90;;;;;;4979215;28;20022;-76
2022/10/01 04:35:02;;;;;;;0.10;0.10;;;9.00;99.90;;;;;;4996211;28;20038;-81
2022/10/01 04:37:29;;;;;;;0.38;0.30;;;8.80;99.90;;;;;;5011327;28;20034;-78
2022/10/01 04:39:55;;;;;;;0.20;0.20;;;8.70;99.90;;;;;;5011444;28;20030;-78
2022/10/01 04:42:21;;;;;;;0.20;0.20;;;8.60;99.90;;;;;;4995182;28;20037;-78
2022/10/01 04:44:47;;;;;;;0.20;0.20;;;8.40;99.90;;;;;;4996211;28;20434;-78
2022/10/01 04:47:13;;;;;;;0.47;0.47;;;8.40;99.90;;;;;;4994783;28;20085;-78
2022/10/01 04:49:39;;;;;;;0.20;0.20;;;8.60;99.90;;;;;;5011224;28;20027;-77
2022/10/01 04:52:05;;;;;;;0.10;0.10;;;8.60;99.90;;;;;;4996164;28;20019;-78
2022/10/01 04:54:30;;;;;;;0.20;0.20;;;8.60;99.90;;;;;;5011184;28;20019;-78
2022/10/01 04:56:57;;;;;;;0.20;0.20;;;8.60;99.90;;;;;;4994790;28;20037;-77
2022/10/01 04:59:24;;;;;;;0.10;0.10;;;8.50;99.90;;;;;;4995962;28;20024;-78
2022/10/01 05:01:50;;;;;;;0.10;0.10;;;8.60;99.90;;;;;;4995951;28;20550;-79
2022/10/01 05:04:17;;;;;;;0.20;0.20;;;8.50;99.90;;;;;;4995849;28;20026;-78
2022/10/01 05:06:43;;;;;;;0.10;0.10;;;8.60;99.90;;;;;;5010629;28;20030;-77
2022/10/01 05:09:08;;;;;;;0.13;0.13;;;8.70;99.90;;;;;;5010887;28;20505;-78
2022/10/01 05:11:34;;;;;;;0.20;0.20;;;8.70;99.90;;;;;;4995426;28;20036;-78
2022/10/01 05:14:00;;;;;;;0.20;0.20;;;8.90;99.90;;;;;;4995773;28;20033;-80
2022/10/01 05:16:26;;;;;;;0.20;0.20;;;8.90;99.90;;;;;;5010679;28;20051;-78
2022/10/01 05:18:53;;;;;;;0.17;0.17;;;8.70;99.90;;;;;;5010727;28;20101;-77
2022/10/01 05:21:19;;;;;;;0.10;0.10;;;8.60;99.90;;;;;;5010704;28;20030;-78
2022/10/01 05:23:45;;;;;;;0.10;0.10;;;8.60;99.90;;;;;;4995482;28;20505;-78
2022/10/01 05:26:11;;;;;;;0.10;0.10;;;8.50;99.90;;;;;;4994073;28;20026;-78
2022/10/01 05:28:43;;;;;;;0.95;0.95;;;8.50;99.90;;;;;;4994458;28;20532;-79
2022/10/01 05:31:09;;;;;;;;;;;8.70;99.90;;;;;;4995889;28;20442;-80
2022/10/01 05:33:35;;;;;;;0.20;0.20;;;8.90;99.90;;;;;;4995494;28;20390;-76
2022/10/01 05:36:03;;;;;;;0.20;0.20;;;9.20;99.90;;;;;;5010309;28;20037;-78
2022/10/01 05:38:29;;;;;;;0.20;0.20;;;9.40;99.90;;;;;;4995448;28;20030;-78
2022/10/01 05:40:55;;;;;;;0.10;0.10;;;9.50;99.90;;;;;;4995350;28;20439;-77
2022/10/01 05:43:21;;;;;;;0.20;0.20;;;9.60;99.90;;;;;;5010290;28;20102;-79
2022/10/01 05:45:48;;;;;;;0.88;0.88;;;9.60;99.90;;;;;;5010167;28;20030;-79
2022/10/01 05:48:14;;;;;;;0.13;0.13;;;9.60;99.90;;;;;;5010162;28;20530;-78
2022/10/01 05:50:41;;;;;;;0.15;0.15;;;9.60;99.90;;;;;;4993828;28;20049;-78
2022/10/01 05:53:09;;;;;;;0.10;0.10;;;9.70;99.90;;;;;;5010870;28;20025;-76
2022/10/01 05:55:35;;;;;;;0.20;0.20;;;9.80;99.90;;;;;;5010621;28;20014;-77
2022/10/01 05:58:03;;;;;;;0.10;0.10;;;9.80;99.90;;;;;;5009958;28;20037;-77
2022/10/01 06:00:31;;;;;;;0.10;0.10;;;10.00;99.90;;;;;;5002723;28;20029;-79
2022/10/01 06:02:58;;;;;;;0.20;0.20;;;10.20;99.90;;;;;;5014077;28;20504;-77
2022/10/01 06:05:25;;;;;;;0.22;0.22;;;10.30;99.90;;;;;;5013076;28;20030;-78
2022/10/01 06:07:52;;;;;;;0.20;0.20;;;10.40;99.90;;;;;;5013260;28;20037;-78
2022/10/01 06:10:19;;;;;;;0.10;0.10;;;10.30;99.90;;;;;;4996612;28;20080;-78
2022/10/01 06:12:47;;;;;;;0.15;0.15;;;10.30;99.90;;;;;;5012719;28;20030;-78
2022/10/01 06:15:13;;;;;;;2.05;1.55;;;10.30;99.90;;;;;;5012622;28;20397;-78
2022/10/01 06:17:43;;;;;;;1.92;1.83;;;10.40;99.90;;;;;;5013292;28;20117;-78
2022/10/01 06:20:14;;;;;;;0.17;0.17;;;10.60;99.90;;;;;;5013322;28;20490;-78
2022/10/01 06:22:42;;;;;;;0.20;0.20;;;10.70;99.90;;;;;;5014209;28;20080;-78
2022/10/01 06:25:09;;;;;;;0.15;0.15;;;10.70;99.90;;;;;;5012543;28;20299;-77
2022/10/01 06:27:35;;;;;;;0.10;0.10;;;10.80;99.90;;;;;;5012675;28;20052;-77
2022/10/01 06:30:01;;;;;;;0.45;0.45;;;10.70;99.90;;;;;;5012638;28;20030;-78
2022/10/01 06:32:27;;;;;;;0.43;0.43;;;10.60;99.90;;;;;;5012455;28;20393;-78
2022/10/01 06:34:53;;;;;;;0.10;0.10;;;10.60;99.90;;;;;;5013567;28;20045;-79
2022/10/01 06:37:19;;;;;;;0.20;0.20;;;10.50;99.90;;;;;;5028975;28;20109;-79
2022/10/01 06:39:45;;;;;;;0.10;0.10;;;10.50;99.90;;;;;;5013752;28;20036;-77
2022/10/01 06:42:11;;;;;;;0.20;0.20;;;10.50;99.90;;;;;;5013613;28;20398;-78
2022/10/01 06:44:36;;;;;;;0.10;0.10;;;10.50;99.90;;;;;;5013937;28;20100;-78
2022/10/01 06:47:02;;;;;;;0.10;0.10;;;10.70;99.90;;;;;;5013332;28;20036;-79
2022/10/01 06:49:28;;;;;;;0.10;0.10;;;10.80;99.90;;;;;;5013658;28;20022;-79
2022/10/01 06:54:38;;;;;;;1.52;1.48;;;11.00;99.90;;;;;;5013565;28;20052;-77
2022/10/01 06:57:05;;;;;;;0.10;0.10;;;11.00;99.90;;;;;;5001490;28;20499;-77
2022/10/01 06:59:35;;;;;;;0.20;0.20;;;11.10;99.90;;;;;;4993899;28;20395;-77
2022/10/01 07:02:02;;;;;;;0.10;0.10;;;11.20;99.90;;;;;;5008976;28;20102;-78
2022/10/01 07:04:28;;;;;;;0.30;0.30;;;11.20;99.90;;;;;;5010817;28;20026;-79
2022/10/01 07:06:54;;;;;;;0.20;0.20;;;11.30;99.90;;;;;;4995291;28;20030;-76
2022/10/01 07:09:24;;;;;;;0.28;0.28;;;11.20;99.90;;;;;;4994728;28;20077;-79
2022/10/01 07:11:51;;;;;;;0.22;0.22;;;11.30;99.90;;;;;;4994827;28;20351;-78
2022/10/01 07:14:20;;;;;;;0.20;0.20;;;11.40;99.90;;;;;;5006096;28;20022;-78
2022/10/01 07:16:46;;;;;;;0.10;0.10;;;11.40;99.90;;;;;;5012878;28;20120;-77
2022/10/01 07:19:11;;;;;;;0.10;0.10;;;11.40;99.90;;;;;;5028228;28;20030;-78
2022/10/01 07:21:37;;;;;;;0.40;0.40;;;11.40;99.90;;;;;;5013154;28;20488;-78
2022/10/01 07:24:03;;;;;;;0.10;0.10;;;11.30;99.90;;;;;;5013025;28;20037;-79
2022/10/01 07:26:29;;;;;;;0.10;0.10;;;11.40;99.90;;;;;;5011467;28;20029;-80
2022/10/01 07:28:55;;;;;;;1.30;1.23;;;11.40;99.90;;;;;;5011595;28;20379;-78
2022/10/01 07:31:20;;;;;;;0.30;0.30;;;11.60;99.90;;;;;;5000134;28;20454;-77
2022/10/01 07:33:47;;;;;;;0.10;0.10;;;11.50;99.90;;;;;;4993280;28;20038;-78
2022/10/01 07:36:13;;;;;;;0.10;0.10;;;11.60;99.90;;;;;;4992958;28;20026;-76
2022/10/01 07:38:39;;;;;;;0.20;0.20;;;11.80;99.90;;;;;;4993196;28;20538;-77
2022/10/01 07:41:05;;;;;;;0.17;0.17;;;11.80;99.90;;;;;;5008305;28;20057;-77
2022/10/01 07:43:32;;;;;;;0.10;0.10;;;11.90;99.90;;;;;;4993040;28;20053;-78
2022/10/01 07:45:58;;;;;;;0.40;0.40;;;11.90;99.90;;;;;;4992924;28;20076;-78
2022/10/01 07:48:26;;;;;;;0.17;0.17;;;12.00;99.90;;;;;;4991798;28;20057;-78
2022/10/01 07:50:53;;;;;;;0.10;0.10;;;12.00;99.90;;;;;;5007738;28;20114;-79
2022/10/01 07:53:18;;;;;;;0.13;0.13;;;11.80;99.90;;;;;;4993094;28;20030;-78
2022/10/01 07:55:46;;;;;;;0.10;0.10;;;11.90;99.90;;;;;;4992723;28;20030;-78
2022/10/01 07:58:12;;;;;;;0.20;0.20;;;11.80;99.90;;;;;;4992988;28;20153;-78
2022/10/01 08:00:38;;;;;;;0.10;0.10;;;11.90;99.90;;;;;;5008214;28;20538;-78
2022/10/01 08:03:05;;;;;;;0.10;0.10;;;11.80;99.90;;;;;;4992963;28;20023;-78
2022/10/01 08:05:33;;;;;;;0.55;0.55;;;11.80;99.90;;;;;;5005436;28;20398;-78
2022/10/01 08:08:05;;;;;;;0.10;0.10;;;11.80;99.90;;;;;;5011269;28;20121;-78
2022/10/01 08:10:35;;;;;;;0.10;0.10;;;11.90;99.90;;;;;;5011204;28;20049;-78
2022/10/01 08:13:13;;;;;;;0.10;0.10;;;11.90;99.90;;;;;;5027718;28;20382;-78
2022/10/01 08:15:52;;;;;;;0.10;0.10;;;12.10;99.90;;;;;;5042352;22;20134;-85
2022/10/01 08:18:33;;;;;;;0.15;0.15;;;12.00;99.90;;;;;;5017841;28;20079;-84
2022/10/01 08:21:31;;;;;;;0.20;0.20;;;12.10;99.90;;;;;;5016456;28;20026;-85
2022/10/01 08:24:15;;;;;;;0.10;0.10;;;12.10;99.90;;;;;;5011921;28;20030;-85
2022/10/01 08:26:54;;;;;;;0.20;0.20;;;12.10;99.90;;;;;;5011457;28;20477;-86
2022/10/01 08:29:47;;;;;;;0.10;0.10;;;12.30;99.90;;;;;;5013634;28;20026;-86
2022/10/01 08:32:43;;;;;;;0.10;0.10;;;12.40;99.90;;;;;;5012192;28;20029;-84
2022/10/01 08:35:18;;;;;;;0.10;0.10;;;12.40;99.90;;;;;;5011389;28;20018;-87
2022/10/01 08:37:55;;;;;;;0.20;0.20;;;12.40;99.90;;;;;;5012921;28;20033;-87
2022/10/01 08:41:25;;;;;;;0.08;0.08;;;12.30;99.90;;;;;;5012234;28;20118;-86
2022/10/01 08:44:18;;;;;;;0.10;0.10;;;12.50;99.90;;;;;;4901746;29;20028;-85
2022/10/01 08:46:51;;;;;;;0.10;0.10;;;12.60;99.90;;;;;;4901730;29;20445;-85
2022/10/01 08:49:26;;;;;;;0.10;0.10;;;12.70;99.90;;;;;;4902245;29;20382;-86
2022/10/01 08:52:21;;;;;;;0.10;0.10;;;12.70;99.90;;;;;;4908789;29;20024;-86
2022/10/01 08:59:10;;;;;;;0.50;0.50;;;12.80;99.90;;;;;;4920288;29;20078;-86
2022/10/01 09:01:59;;;;;;;0.20;0.20;;;12.80;99.90;;;;;;4852344;29;20029;-87
2022/10/01 09:04:49;;;;;;;0.10;0.10;;;12.80;99.90;;;;;;4918780;29;20047;-85
2022/10/01 09:08:06;;;;;;;0.10;0.10;;;12.90;99.90;;;;;;4956149;28;20074;-84
2022/10/01 09:14:18;;;;;;;0.10;0.10;;;12.80;99.90;;;;;;5052518;28;20079;-85
2022/10/01 09:17:40;;;;;;;0.10;0.10;;;12.90;99.90;;;;;;5052187;28;20006;-85
2022/10/01 09:20:30;;;;;;;0.20;0.20;;;13.10;99.90;;;;;;5060911;28;20017;-85
2022/10/01 09:23:21;;;;;;;0.10;0.10;;;13.10;99.90;;;;;;5060135;28;20021;-85
2022/10/01 09:26:07;;;;;;;0.15;0.15;;;13.10;99.90;;;;;;5056659;28;20047;-84
2022/10/01 09:33:32;;;;;;;0.10;0.10;;;13.10;99.90;;;;;;4914122;29;20056;-85
2022/10/01 09:36:25;;;;;;;0.20;0.20;;;13.40;99.90;;;;;;4984239;23;20108;-77
2022/10/01 09:39:00;;;;;;;0.20;0.20;;;13.40;99.90;;;;;;5020694;28;20100;-77
2022/10/01 09:41:26;;;;;;;0.20;0.20;;;13.50;99.90;;;;;;5054727;28;20043;-77
2022/10/01 09:43:52;;;;;;;0.10;0.10;;;13.50;99.90;;;;;;5041268;28;20025;-77
2022/10/01 09:46:20;;;;;;;0.17;0.17;;;13.50;99.90;;;;;;5053447;28;20025;-76
2022/10/01 09:48:54;;;;;;;0.20;0.20;;;13.50;99.90;;;;;;5054862;28;20092;-77
2022/10/01 09:51:22;;;;;;;0.10;0.10;;;13.50;99.90;;;;;;5054718;28;20545;-76
2022/10/01 09:54:14;;;;;;;0.10;0.10;;;13.40;99.90;;;;;;5039606;28;20079;-77
2022/10/01 09:56:53;;;;;;;0.20;0.20;;;13.40;99.90;;;;;;5057930;28;20029;-77
2022/10/01 09:59:24;;;;;;;0.10;0.10;;;13.50;99.90;;;;;;5041412;28;20492;-77
2022/10/01 10:02:00;;;;;;;0.10;0.10;;;13.60;99.90;;;;;;5059362;28;20079;-77
2022/10/01 10:04:26;;;;;;;0.47;0.47;;;13.70;99.90;;;;;;5041441;28;20393;-77
2022/10/01 10:07:04;;;;;;;0.20;0.20;;;13.70;99.90;;;;;;5058117;28;20472;-80
2022/10/01 10:09:34;;;;;;;0.15;0.15;;;13.80;99.90;;;;;;5057124;28;20093;-78
2022/10/01 10:12:01;;;;;;;0.10;0.10;;;13.80;99.90;;;;;;5057713;28;20095;-77
2022/10/01 10:14:35;;;;;;;0.10;0.10;;;13.80;99.90;;;;;;5058782;28;20021;-77
2022/10/01 10:17:12;;;;;;;0.10;0.10;;;13.80;99.90;;;;;;5038364;28;20487;-77
2022/10/01 10:19:40;;;;;;;0.10;0.10;;;13.80;99.90;;;;;;5041678;28;20031;-77
2022/10/01 10:22:11;;;;;;;1.45;0.57;;;13.90;99.90;;;;;;5058295;28;20051;-77
2022/10/01 10:24:37;;;;;;;0.20;0.20;;;14.00;99.90;;;;;;5060505;28;20030;-77
2022/10/01 10:27:06;;;;;;;0.10;0.10;;;14.00;99.90;;;;;;5059619;28;20377;-76
2022/10/01 10:29:34;;;;;;;0.10;0.10;;;14.00;99.90;;;;;;5056376;28;20365;-76
2022/10/01 10:32:23;;;;;;;0.10;0.10;;;14.00;99.90;;;;;;5055585;28;20024;-77
2022/10/01 10:34:50;;;;;;;0.10;0.10;;;14.10;99.90;;;;;;5055529;28;20405;-76
2022/10/01 10:37:22;;;;;;;0.10;0.10;;;14.10;99.90;;;;;;5054578;28;20060;-78
2022/10/01 10:39:50;;;;;;;0.10;0.10;;;14.10;99.90;;;;;;5038033;28;20112;-76
2022/10/01 10:42:21;;;;;;;0.13;0.13;;;14.00;99.90;;;;;;5052965;28;20027;-77
2022/10/01 10:44:49;;;;;;;0.10;0.10;;;14.10;99.90;;;;;;5056514;28;20017;-77
2022/10/01 10:47:18;;;;;;;0.10;0.10;;;14.20;99.90;;;;;;5039087;28;20333;-77
2022/10/01 10:49:50;;;;;;;0.10;0.10;;;14.20;99.90;;;;;;5042562;28;20063;-77
2022/10/01 10:52:27;;;;;;;0.03;0.03;;;14.00;99.90;;;;;;5034062;28;20121;-76
2022/10/01 10:54:54;;;;;;;0.10;0.10;;;13.90;99.90;;;;;;5048509;28;20496;-76
2022/10/01 10:57:27;;;;;;;0.10;0.10;;;13.80;99.90;;;;;;5031675;28;20087;-77
2022/10/01 10:59:58;;;;;;;0.10;0.10;;;13.80;99.90;;;;;;5050534;28;20029;-77
2022/10/01 11:02:29;;;;;;;0.10;0.10;;;13.80;99.90;;;;;;5041448;28;20464;-77
2022/10/01 11:05:15;;;;;;;;;;;13.80;99.90;;;;;;5033903;28;20120;-77
2022/10/01 11:07:44;;;;;;;0.00;0.00;;;13.90;99.90;;;;;;5035248;28;19955;-77
2022/10/01 11:10:18;;;;;;;0.10;0.10;;;13.90;99.90;;;;;;5032659;28;20029;-77
2022/10/01 11:13:21;;;;;;;0.10;0.10;;;13.80;99.90;;;;;;5032587;28;20551;-77
2022/10/01 11:15:56;;;;;;;0.20;0.20;;;13.90;99.90;;;;;;5032426;28;20488;-77
2022/10/01 11:18:39;;;;;;;0.10;0.10;;;13.80;99.90;;;;;;5033901;28;20021;-77
2022/10/01 11:21:30;;;;;;;0.10;0.10;;;13.80;99.90;;;;;;5050367;28;20080;-77
2022/10/01 11:24:05;;;;;;;0.20;0.20;;;13.70;99.90;;;;;;5035742;28;20412;-77
2022/10/01 11:26:55;;;;;;;0.00;0.00;;;13.70;99.90;;;;;;5028080;28;20021;-77
2022/10/01 11:29:27;;;;;;;0.00;0.00;;;13.60;99.90;;;;;;5055159;28;20024;-77
2022/10/01 11:32:07;;;;;;;0.10;0.10;;;13.50;99.90;;;;;;5046515;28;20096;-77
2022/10/01 11:34:49;;;;;;;0.00;0.00;;;13.50;99.90;;;;;;5052859;28;20025;-77
2022/10/01 11:37:49;;;;;;;0.13;0.13;;;13.40;99.90;;;;;;5041211;28;20118;-78
2022/10/01 11:40:32;;;;;;;0.10;0.10;;;13.30;99.90;;;;;;5017375;28;20032;-77
2022/10/01 11:43:05;;;;;;;0.10;0.10;;;13.40;99.90;;;;;;5034444;28;20049;-77
2022/10/01 11:45:38;;;;;;;0.20;0.20;;;13.40;99.90;;;;;;5036348;28;20060;-77
2022/10/01 11:48:11;;;;;;;0.10;0.10;;;13.10;99.90;;;;;;5037777;28;20026;-77
2022/10/01 11:50:43;;;;;;;0.10;0.10;;;13.20;99.90;;;;;;5025009;28;20024;-78
2022/10/01 11:53:38;;;;;;;0.20;0.20;;;13.40;99.90;;;;;;5043146;28;20325;-77
2022/10/01 11:59:21;;;;;;;0.20;0.20;;;13.40;99.90;;;;;;5052140;28;20052;-77
2022/10/01 12:01:47;;;;;;;0.00;0.00;;;13.20;99.90;;;;;;5034541;28;20041;-77
2022/10/01 12:04:31;;;;;;;0.10;0.10;;;12.90;99.90;;;;;;5032787;28;20030;-77
2022/10/01 12:07:29;;;;;;;0.00;0.00;;;13.00;99.90;;;;;;5034180;28;20017;-77
2022/10/01 12:09:57;;;;;;;0.00;0.00;;;12.90;99.90;;;;;;5050205;28;20364;-77
2022/10/01 12:12:46;;;;;;;0.00;0.00;;;12.60;99.90;;;;;;5034335;28;20115;-77
2022/10/01 12:15:27;;;;;;;0.10;0.10;;;12.60;99.90;;;;;;5033269;28;20022;-77
2022/10/01 12:18:26;;;;;;;0.10;0.10;;;12.70;99.90;;;;;;5034354;28;20388;-77
2022/10/01 12:20:54;;;;;;;0.00;0.00;;;12.80;99.90;;;;;;5035645;28;20029;-77
2022/10/01 12:23:31;;;;;;;0.20;0.20;;;12.80;99.90;;;;;;5035817;28;20045;-77
2022/10/01 12:26:33;;;;;;;0.00;0.00;;;12.70;99.90;;;;;;5035774;28;20021;-77
2022/10/01 12:28:58;;;;;;;;;;;12.60;99.90;;;;;;5016026;28;20052;-78
2022/10/01 12:31:32;;;;;;;0.10;0.10;;;12.70;99.90;;;;;;5018682;28;20368;-78
2022/10/01 12:34:41;;;;;;;1.55;1.45;;;12.60;99.90;;;;;;5036638;28;20060;-77
2022/10/01 12:37:16;;;;;;;0.10;0.10;;;12.60;99.90;;;;;;5045532;28;20102;-78
2022/10/01 12:39:53;;;;;;;0.17;0.17;;;12.60;99.90;;;;;;5040677;28;20443;-76
2022/10/01 12:42:34;;;;;;;0.10;0.10;;;12.50;99.90;;;;;;5021013;28;20063;-77
2022/10/01 12:46:03;;;;;;;5.05;2.38;;;12.30;99.90;;;;;;5038702;28;20394;-77
2022/10/01 12:48:40;;;;;;;1.45;0.30;;;12.30;99.90;;;;;;4960139;29;20236;-77
2022/10/01 12:51:25;;;;;;;0.10;0.10;;;12.10;99.90;;;;;;4960234;29;20023;-77
2022/10/01 12:54:20;;;;;;;0.10;0.10;;;12.10;99.90;;;;;;5016144;28;20074;-77
2022/10/01 12:57:24;;;;;;;0.00;0.00;;;11.90;99.90;;;;;;5001784;28;20060;-77
2022/10/01 13:00:09;;;;;;;0.00;0.00;;;11.90;99.90;;;;;;4927194;29;20455;-77
2022/10/01 13:02:39;;;;;;;0.20;0.20;;;12.10;99.90;;;;;;5047607;28;20069;-78
2022/10/01 13:05:33;;;;;;;0.10;0.10;;;11.90;99.90;;;;;;5038627;28;20508;-78
2022/10/01 13:08:11;;;;;;;0.10;0.10;;;11.90;99.90;;;;;;5040239;28;20029;-78
2022/10/01 13:11:19;;;;;;;0.10;0.10;;;11.80;99.90;;;;;;5022537;28;20492;-77
2022/10/01 13:13:52;;;;;;;0.93;0.22;;;11.70;99.90;;;;;;5039453;28;20056;-77
2022/10/01 13:17:03;;;;;;;0.00;0.00;;;11.80;99.90;;;;;;5040263;28;20041;-77
2022/10/01 13:19:47;;;;;;;0.10;0.10;;;11.60;99.90;;;;;;5003022;28;20568;-77
2022/10/01 13:22:31;;;;;;;0.30;0.30;;;11.60;99.90;;;;;;5039602;28;20386;-79
2022/10/01 13:25:15;;;;;;;0.38;0.38;;;11.60;99.90;;;;;;5042100;28;20056;-77
2022/10/01 13:27:49;;;;;;;0.10;0.10;;;11.50;99.90;;;;;;5022063;28;20048;-78
2022/10/01 13:30:22;;;;;;;0.10;0.10;;;11.60;99.90;;;;;;5038807;28;20022;-77
2022/10/01 13:32:56;;;;;;;0.10;0.10;;;11.50;99.90;;;;;;5037771;28;20025;-77
2022/10/01 13:35:51;;;;;;;0.10;0.10;;;11.50;99.90;;;;;;5021683;28;20124;-77
2022/10/01 13:38:29;;;;;;;0.10;0.10;;;11.60;99.90;;;;;;5038047;28;20097;-78
2022/10/01 13:41:01;;;;;;;0.28;0.28;;;11.40;99.90;;;;;;5038724;28;20021;-78
2022/10/01 13:43:29;;;;;;;0.30;0.30;;;11.30;99.90;;;;;;5051394;28;20022;-77